Time;durP1;ratioP1;P1;durP2;ratioP2;P2;SDS_P1;SDS_P2;PMS_P1;PMS_P2;Temp;Humidity;BMP_temperature;BMP_pressure;BME280_temperature;BME280_humidity;BME280_pressure;Samples;Min_cycle;Max_cycle;Signal;HPM_P1;HPM_P2
2022/08/30 00:04:03;;;;;;;2.13;1.13;;;26.40;52.70;;;;;;10435753;28;20050;-36
2022/08/30 00:09:05;;;;;;;3.33;1.40;;;26.30;52.70;;;;;;10443480;28;20057;-36
2022/08/30 00:14:07;;;;;;;2.67;1.23;;;26.40;52.80;;;;;;10433224;28;20136;-35
2022/08/30 00:19:10;;;;;;;3.90;1.23;;;26.30;52.90;;;;;;10440126;28;20068;-34
2022/08/30 00:24:12;;;;;;;2.03;1.20;;;26.30;52.90;;;;;;10485671;28;20177;-35
2022/08/30 00:29:14;;;;;;;3.50;1.48;;;26.20;52.90;;;;;;10472921;28;20080;-35
2022/08/30 00:34:17;;;;;;;5.72;1.45;;;26.30;53.00;;;;;;10487440;28;20076;-35
2022/08/30 00:39:19;;;;;;;3.42;0.95;;;26.20;53.10;;;;;;10496219;28;20579;-35
2022/08/30 00:44:21;;;;;;;3.17;1.40;;;26.20;53.00;;;;;;10497892;28;20036;-35
2022/08/30 00:49:25;;;;;;;3.72;1.60;;;26.20;53.20;;;;;;10486348;28;20084;-35
2022/08/30 00:54:28;;;;;;;2.72;1.20;;;26.10;53.10;;;;;;10489418;28;20129;-34
2022/08/30 00:59:31;;;;;;;2.25;1.30;;;26.10;53.20;;;;;;10489806;28;20045;-35
2022/08/30 01:04:35;;;;;;;5.90;1.73;;;26.10;53.30;;;;;;10496382;28;20136;-35
2022/08/30 01:09:37;;;;;;;2.95;1.13;;;26.10;53.30;;;;;;10482328;28;20812;-36
2022/08/30 01:14:40;;;;;;;4.32;1.48;;;26.10;53.40;;;;;;10493388;28;20053;-35
2022/08/30 01:19:48;;;;;;;2.38;1.10;;;26.00;53.30;;;;;;10484664;28;20048;-36
2022/08/30 01:24:54;;;;;;;1.98;0.90;;;26.00;53.40;;;;;;10486718;28;20548;-36
2022/08/30 01:29:57;;;;;;;0.98;0.80;;;26.00;53.50;;;;;;10472041;28;20079;-36
2022/08/30 01:35:00;;;;;;;3.17;1.13;;;26.00;53.50;;;;;;10492864;28;20079;-36
2022/08/30 01:40:06;;;;;;;3.13;1.33;;;26.00;53.60;;;;;;10487504;28;20044;-35
2022/08/30 01:45:09;;;;;;;2.88;1.20;;;25.90;53.60;;;;;;10473565;28;20561;-35
2022/08/30 01:50:11;;;;;;;1.95;1.20;;;25.90;53.70;;;;;;10482632;28;20504;-36
2022/08/30 01:55:16;;;;;;;1.42;0.82;;;25.90;53.60;;;;;;10491356;28;20074;-35
2022/08/30 02:00:18;;;;;;;2.78;1.02;;;25.90;53.70;;;;;;10474516;28;20060;-35
2022/08/30 02:05:20;;;;;;;1.85;1.00;;;25.80;53.70;;;;;;10478251;28;20095;-35
2022/08/30 02:10:23;;;;;;;4.60;1.27;;;25.80;53.70;;;;;;10496941;28;20045;-37
2022/08/30 02:15:25;;;;;;;3.42;1.05;;;25.80;53.80;;;;;;10489307;28;20070;-35
2022/08/30 02:20:27;;;;;;;4.43;0.98;;;25.80;53.80;;;;;;10486680;28;20045;-36
2022/08/30 02:25:31;;;;;;;2.63;1.05;;;25.80;53.90;;;;;;10483314;28;20138;-35
2022/08/30 02:30:32;;;;;;;2.70;1.00;;;25.70;53.90;;;;;;10493453;28;20537;-35
2022/08/30 02:35:34;;;;;;;1.55;1.05;;;25.80;53.90;;;;;;10486114;28;20079;-35
2022/08/30 02:40:38;;;;;;;1.30;0.70;;;25.70;54.00;;;;;;10496372;28;20118;-35
2022/08/30 02:45:40;;;;;;;2.10;1.02;;;25.70;54.00;;;;;;10487633;28;20048;-36
2022/08/30 02:50:43;;;;;;;1.42;1.00;;;25.70;54.00;;;;;;10488036;28;20112;-35
2022/08/30 02:55:46;;;;;;;1.48;0.82;;;25.80;54.10;;;;;;10491756;28;20555;-35
2022/08/30 03:00:48;;;;;;;1.85;1.00;;;25.70;54.20;;;;;;10486694;28;20048;-35
2022/08/30 03:05:50;;;;;;;1.95;1.00;;;25.40;53.90;;;;;;10487417;28;20106;-35
2022/08/30 03:10:55;;;;;;;3.20;0.73;;;25.70;54.20;;;;;;10479599;28;20135;-35
2022/08/30 03:15:57;;;;;;;3.65;1.13;;;25.70;54.20;;;;;;10490393;28;20147;-33
2022/08/30 03:20:59;;;;;;;1.52;0.60;;;25.60;54.30;;;;;;10482276;28;20529;-35
2022/08/30 03:26:02;;;;;;;1.90;0.60;;;25.60;54.20;;;;;;10487037;28;20068;-36
2022/08/30 03:31:04;;;;;;;3.80;0.85;;;25.60;54.30;;;;;;10491119;28;20211;-34
2022/08/30 03:36:07;;;;;;;1.48;0.82;;;25.60;54.20;;;;;;10470291;28;20053;-35
2022/08/30 03:41:10;;;;;;;1.58;0.75;;;25.60;54.30;;;;;;10480656;28;20041;-35
2022/08/30 03:46:12;;;;;;;1.35;0.77;;;25.60;54.40;;;;;;10476221;28;20402;-34
2022/08/30 03:51:14;;;;;;;1.67;0.70;;;25.50;54.30;;;;;;10492413;28;20087;-35
2022/08/30 03:56:18;;;;;;;4.00;0.82;;;25.50;54.40;;;;;;10489489;28;20468;-35
2022/08/30 04:01:20;;;;;;;2.35;0.70;;;25.50;54.40;;;;;;10465752;28;20476;-35
2022/08/30 04:06:22;;;;;;;1.27;0.85;;;25.50;54.40;;;;;;10484396;28;20047;-36
2022/08/30 04:11:26;;;;;;;1.67;0.50;;;25.50;54.40;;;;;;10483801;28;20304;-36
2022/08/30 04:16:28;;;;;;;1.75;0.65;;;25.50;54.60;;;;;;10476847;28;20075;-36
2022/08/30 04:21:30;;;;;;;1.27;0.80;;;25.30;54.40;;;;;;10488109;28;20082;-36
2022/08/30 04:26:34;;;;;;;1.08;0.80;;;25.40;54.50;;;;;;10472503;28;20131;-36
2022/08/30 04:31:36;;;;;;;3.78;0.60;;;25.40;54.50;;;;;;10462721;28;20049;-35
2022/08/30 04:36:38;;;;;;;0.93;0.60;;;25.40;54.50;;;;;;10462752;28;20632;-35
2022/08/30 04:41:41;;;;;;;1.63;0.80;;;25.40;54.50;;;;;;10460556;28;20083;-35
2022/08/30 04:46:43;;;;;;;0.77;0.70;;;25.40;54.50;;;;;;10465657;28;20135;-35
2022/08/30 04:51:45;;;;;;;3.75;0.80;;;25.40;54.50;;;;;;10466050;28;20044;-34
2022/08/30 04:56:48;;;;;;;1.95;0.95;;;25.30;54.50;;;;;;10479624;28;20473;-35
2022/08/30 05:01:50;;;;;;;1.85;1.00;;;25.40;54.80;;;;;;10456070;28;20073;-35
2022/08/30 05:06:52;;;;;;;1.65;0.98;;;25.60;55.20;;;;;;10483470;28;20036;-35
2022/08/30 05:11:55;;;;;;;4.25;1.95;;;25.10;54.70;;;;;;10488623;28;20055;-35
2022/08/30 05:16:58;;;;;;;6.68;1.50;;;25.40;54.90;;;;;;10482708;28;20540;-36
2022/08/30 05:21:59;;;;;;;4.03;1.20;;;25.40;54.90;;;;;;10481895;28;20079;-36
2022/08/30 05:27:03;;;;;;;3.75;1.10;;;25.30;55.50;;;;;;10484835;28;20159;-36
2022/08/30 05:32:05;;;;;;;8.13;1.25;;;25.20;54.50;;;;;;10476431;28;20052;-35
2022/08/30 05:37:07;;;;;;;3.80;1.35;;;25.40;54.80;;;;;;10494519;28;20094;-35
2022/08/30 05:42:10;;;;;;;2.38;1.13;;;25.30;54.70;;;;;;10478551;28;20049;-35
2022/08/30 05:47:12;;;;;;;4.63;1.33;;;25.50;54.80;;;;;;10478129;28;20057;-37
2022/08/30 05:52:16;;;;;;;3.80;1.45;;;25.30;54.70;;;;;;10484776;28;20114;-34
2022/08/30 05:57:20;;;;;;;3.45;1.27;;;25.30;54.90;;;;;;10465445;28;20045;-36
2022/08/30 06:02:22;;;;;;;6.15;2.00;;;25.40;54.70;;;;;;10484001;28;20166;-30
2022/08/30 06:07:24;;;;;;;4.05;1.80;;;25.40;54.60;;;;;;10467874;28;20119;-35
2022/08/30 06:12:27;;;;;;;;;;;25.40;54.60;;;;;;10487100;28;20048;-36
2022/08/30 06:17:28;;;;;;;2.63;1.30;;;25.40;54.50;;;;;;10477840;28;20018;-35
2022/08/30 06:22:30;;;;;;;2.38;1.10;;;26.00;55.00;;;;;;10489669;28;20056;-36
2022/08/30 06:27:34;;;;;;;1.92;1.10;;;25.70;54.80;;;;;;10483736;28;20079;-36
2022/08/30 06:32:35;;;;;;;7.82;1.10;;;25.40;54.50;;;;;;10487446;28;20139;-34
2022/08/30 06:37:37;;;;;;;3.20;1.10;;;25.40;54.40;;;;;;10484402;28;20102;-34
2022/08/30 06:42:40;;;;;;;3.40;1.05;;;25.40;54.30;;;;;;10485742;28;20072;-34
2022/08/30 06:47:43;;;;;;;3.47;1.00;;;25.40;54.30;;;;;;10489310;28;20130;-34
2022/08/30 06:52:45;;;;;;;5.47;1.23;;;25.50;54.40;;;;;;10509923;28;20091;-36
2022/08/30 06:57:48;;;;;;;2.22;0.95;;;25.40;54.50;;;;;;10473699;28;20636;-36
2022/08/30 07:02:50;;;;;;;6.78;1.08;;;25.40;54.40;;;;;;10474737;28;20064;-36
2022/08/30 07:07:53;;;;;;;4.22;0.95;;;25.50;54.40;;;;;;10478051;28;20059;-35
2022/08/30 07:12:56;;;;;;;1.80;0.90;;;25.50;54.30;;;;;;10476108;28;20456;-34
2022/08/30 07:23:17;;;;;;;7.05;1.30;;;25.50;54.20;;;;;;10481509;28;20481;-34
2022/08/30 07:28:20;;;;;;;1.75;1.10;;;25.60;54.10;;;;;;10478223;28;20151;-35
2022/08/30 07:33:23;;;;;;;2.72;1.25;;;25.50;54.20;;;;;;10484328;28;20036;-34
2022/08/30 07:38:25;;;;;;;4.82;1.40;;;25.60;54.10;;;;;;10479997;28;20072;-34
2022/08/30 07:43:28;;;;;;;4.47;1.60;;;25.60;53.80;;;;;;10479179;28;20136;-34
2022/08/30 07:48:30;;;;;;;2.00;1.25;;;25.80;54.10;;;;;;10475678;28;20090;-35
2022/08/30 07:53:31;;;;;;;2.60;1.15;;;25.60;53.80;;;;;;10478612;28;20093;-33
2022/08/30 07:58:36;;;;;;;5.30;1.45;;;25.60;53.80;;;;;;10480423;28;20064;-34
2022/08/30 08:03:40;;;;;;;3.50;1.35;;;25.60;53.80;;;;;;10484911;28;20044;-34
2022/08/30 08:08:44;;;;;;;2.20;1.10;;;25.60;53.80;;;;;;10484631;28;20049;-35
2022/08/30 08:13:48;;;;;;;3.20;1.00;;;25.90;53.70;;;;;;10477934;28;20124;-34
2022/08/30 08:18:50;;;;;;;3.58;1.00;;;25.70;53.50;;;;;;10476500;28;20063;-35
2022/08/30 08:23:53;;;;;;;2.25;1.02;;;25.70;53.40;;;;;;10472062;28;20079;-35
2022/08/30 08:28:56;;;;;;;3.10;1.27;;;25.60;53.40;;;;;;10484654;28;20076;-35
2022/08/30 08:33:59;;;;;;;2.65;0.90;;;25.70;53.40;;;;;;10484145;28;20075;-35
2022/08/30 08:39:02;;;;;;;4.72;1.20;;;25.70;53.30;;;;;;10481247;28;20041;-35
2022/08/30 08:44:08;;;;;;;3.85;1.50;;;25.80;53.10;;;;;;10478738;28;20090;-35
2022/08/30 08:49:10;;;;;;;1.25;0.68;;;25.80;53.00;;;;;;10483687;28;20095;-35
2022/08/30 08:54:16;;;;;;;2.08;0.98;;;25.80;52.80;;;;;;10486270;28;20080;-35
2022/08/30 08:59:19;;;;;;;6.57;1.00;;;25.90;52.70;;;;;;10474689;28;20084;-35
2022/08/30 09:04:28;;;;;;;2.20;0.82;;;25.80;52.70;;;;;;10486406;28;20046;-35
2022/08/30 09:09:32;;;;;;;2.13;0.90;;;25.90;52.50;;;;;;10479331;28;20390;-32
2022/08/30 09:14:39;;;;;;;1.17;0.82;;;25.90;52.30;;;;;;10488226;28;20067;-35
2022/08/30 09:19:44;;;;;;;2.95;0.77;;;25.90;52.20;;;;;;10497241;28;20072;-37
2022/08/30 09:24:48;;;;;;;1.20;0.80;;;26.10;51.80;;;;;;10492857;28;20129;-34
2022/08/30 09:29:54;;;;;;;1.83;0.90;;;26.20;51.50;;;;;;10497180;28;20111;-35
2022/08/30 09:34:57;;;;;;;2.97;1.23;;;26.30;51.40;;;;;;10486278;28;20052;-36
2022/08/30 09:39:59;;;;;;;4.72;0.98;;;26.30;51.30;;;;;;10483668;28;20045;-33
2022/08/30 09:45:12;;;;;;;2.20;0.73;;;26.10;51.70;;;;;;10494465;28;20102;-35
2022/08/30 09:50:17;;;;;;;3.35;1.15;;;26.10;51.50;;;;;;10499396;28;20072;-35
2022/08/30 09:55:29;;;;;;;1.55;0.60;;;26.10;51.00;;;;;;10497465;28;20036;-35
2022/08/30 10:00:38;;;;;;;2.45;0.80;;;26.30;50.90;;;;;;10486784;28;20071;-33
2022/08/30 10:05:50;;;;;;;3.25;0.70;;;26.30;50.90;;;;;;10480644;28;20051;-35
2022/08/30 10:10:53;;;;;;;;;;;26.30;51.10;;;;;;10483201;28;20052;-35
2022/08/30 10:16:01;;;;;;;2.28;1.10;;;26.40;50.60;;;;;;10483091;28;20507;-35
2022/08/30 10:21:10;;;;;;;4.30;1.00;;;26.70;49.70;;;;;;10482679;28;20076;-34
2022/08/30 10:26:28;;;;;;;2.70;1.00;;;26.20;50.70;;;;;;10480006;28;20044;-35
2022/08/30 10:31:39;;;;;;;0.85;0.68;;;26.40;50.60;;;;;;10469869;28;20087;-34
2022/08/30 10:36:44;;;;;;;1.73;0.52;;;26.60;50.80;;;;;;10479005;28;20095;-33
2022/08/30 10:41:50;;;;;;;0.90;0.50;;;26.50;50.40;;;;;;10480002;28;20115;-34
2022/08/30 10:47:04;;;;;;;1.45;0.70;;;26.50;50.30;;;;;;10479676;28;20455;-35
2022/08/30 10:52:19;;;;;;;4.28;0.65;;;26.80;49.30;;;;;;10494329;28;20072;-35
2022/08/30 10:57:21;;;;;;;0.82;0.68;;;26.80;49.60;;;;;;10489536;28;20481;-35
2022/08/30 11:02:58;;;;;;;2.70;0.70;;;26.70;49.80;;;;;;10477100;28;20451;-35
2022/08/30 11:08:09;;;;;;;1.60;0.88;;;26.70;49.70;;;;;;10483930;28;20044;-34
2022/08/30 11:13:13;;;;;;;2.35;0.75;;;26.90;49.10;;;;;;10472204;28;20163;-35
2022/08/30 11:18:17;;;;;;;1.85;1.05;;;26.70;49.50;;;;;;10481516;28;20408;-34
2022/08/30 11:23:32;;;;;;;3.35;0.82;;;26.70;49.40;;;;;;10477741;28;20044;-36
2022/08/30 11:29:03;;;;;;;1.98;0.82;;;26.70;49.40;;;;;;10489191;28;20076;-34
2022/08/30 11:34:07;;;;;;;5.13;0.90;;;26.80;48.90;;;;;;10485713;28;20060;-34
2022/08/30 11:39:13;;;;;;;4.32;0.70;;;26.70;49.60;;;;;;10482640;28;20469;-34
2022/08/30 11:44:28;;;;;;;4.65;0.90;;;26.80;48.90;;;;;;10490692;28;20068;-34
2022/08/30 11:49:57;;;;;;;2.75;1.20;;;27.10;48.70;;;;;;10473032;28;20048;-34
2022/08/30 11:55:17;;;;;;;1.25;0.95;;;27.30;48.70;;;;;;10473943;28;20040;-36
2022/08/30 12:00:33;;;;;;;1.45;0.70;;;27.30;48.50;;;;;;10472544;28;20623;-34
2022/08/30 12:05:53;;;;;;;1.35;0.70;;;27.50;48.10;;;;;;10476359;28;20516;-34
2022/08/30 12:10:59;;;;;;;1.40;0.65;;;27.50;48.40;;;;;;10475148;28;20408;-36
2022/08/30 12:16:02;;;;;;;1.10;0.60;;;27.60;47.30;;;;;;10466062;28;20098;-34
2022/08/30 12:21:22;;;;;;;2.90;1.02;;;27.40;48.50;;;;;;10478211;28;20073;-34
2022/08/30 12:26:34;;;;;;;2.22;0.80;;;27.50;47.40;;;;;;10461875;28;20048;-35
2022/08/30 12:31:40;;;;;;;2.95;1.08;;;27.50;46.90;;;;;;10469304;28;20140;-35
2022/08/30 12:36:51;;;;;;;2.45;0.90;;;27.70;47.50;;;;;;10471994;28;20056;-35
2022/08/30 12:41:53;;;;;;;2.80;1.00;;;27.90;46.60;;;;;;10484696;28;20048;-35
2022/08/30 12:46:57;;;;;;;5.70;1.10;;;27.70;47.40;;;;;;10489376;28;20048;-35
2022/08/30 12:52:16;;;;;;;3.42;0.90;;;27.60;47.80;;;;;;10490930;28;20044;-35
2022/08/30 12:57:37;;;;;;;2.25;0.85;;;27.60;47.80;;;;;;10490707;28;20099;-34
2022/08/30 13:02:45;;;;;;;2.10;0.90;;;27.60;47.90;;;;;;10481437;28;20050;-34
2022/08/30 13:07:52;;;;;;;1.50;0.77;;;28.00;47.90;;;;;;10485384;28;20087;-35
2022/08/30 13:13:03;;;;;;;1.95;0.80;;;27.80;47.50;;;;;;10484223;28;20045;-34
2022/08/30 13:18:18;;;;;;;2.92;1.67;;;27.90;47.50;;;;;;10483930;28;20076;-34
2022/08/30 13:23:23;;;;;;;4.28;1.05;;;28.40;47.30;;;;;;10472000;28;20045;-34
2022/08/30 13:28:26;;;;;;;1.10;0.70;;;28.20;46.20;;;;;;10473992;28;20084;-34
2022/08/30 13:33:28;;;;;;;1.85;0.70;;;28.30;46.70;;;;;;10469793;28;20045;-35
2022/08/30 13:38:31;;;;;;;0.80;0.70;;;28.40;44.30;;;;;;10490130;28;20117;-35
2022/08/30 13:43:33;;;;;;;3.20;0.80;;;28.30;46.50;;;;;;10473738;28;20048;-36
2022/08/30 13:48:35;;;;;;;1.25;0.73;;;28.60;46.50;;;;;;10432028;28;20080;-35
2022/08/30 13:53:39;;;;;;;1.40;0.70;;;28.60;43.90;;;;;;10418834;28;20516;-36
2022/08/30 13:58:40;;;;;;;2.10;0.80;;;28.70;45.60;;;;;;10426038;28;20053;-34
2022/08/30 14:03:42;;;;;;;2.13;0.70;;;28.40;46.30;;;;;;10423823;28;20056;-36
2022/08/30 14:08:46;;;;;;;0.95;0.88;;;28.40;45.70;;;;;;10417987;28;20045;-33
2022/08/30 14:13:48;;;;;;;1.52;0.70;;;28.40;46.20;;;;;;10431043;28;20056;-35
2022/08/30 14:18:50;;;;;;;0.82;0.65;;;28.30;46.30;;;;;;10411903;28;20042;-35
2022/08/30 14:23:54;;;;;;;1.77;0.95;;;28.30;46.30;;;;;;10414214;28;20106;-36
2022/08/30 14:28:57;;;;;;;1.08;0.60;;;28.40;45.00;;;;;;10431371;28;20049;-35
2022/08/30 14:33:58;;;;;;;2.80;1.17;;;28.30;46.60;;;;;;10437826;28;20103;-34
2022/08/30 14:39:02;;;;;;;1.70;0.73;;;28.40;46.30;;;;;;10433230;28;20072;-33
2022/08/30 14:44:04;;;;;;;0.93;0.73;;;28.50;46.50;;;;;;10430233;28;20040;-34
2022/08/30 14:49:06;;;;;;;1.55;0.60;;;28.50;46.50;;;;;;10433630;28;20096;-34
2022/08/30 14:54:09;;;;;;;1.45;0.80;;;28.40;46.20;;;;;;10443918;28;20123;-34
2022/08/30 14:59:12;;;;;;;1.58;0.80;;;28.60;46.20;;;;;;10437060;28;20159;-35
2022/08/30 15:04:14;;;;;;;4.47;0.90;;;28.60;46.80;;;;;;10442802;28;20525;-34
2022/08/30 15:09:20;;;;;;;1.45;0.50;;;28.50;46.40;;;;;;10433770;28;20120;-35
2022/08/30 15:14:22;;;;;;;1.60;0.80;;;28.60;46.50;;;;;;10426738;28;20099;-35
2022/08/30 15:19:25;;;;;;;2.97;1.05;;;28.70;46.50;;;;;;10429393;28;20037;-34
2022/08/30 15:24:29;;;;;;;0.93;0.60;;;28.80;46.10;;;;;;10438486;28;20603;-35
2022/08/30 15:29:30;;;;;;;2.83;0.90;;;28.80;46.40;;;;;;10441214;28;20487;-36
2022/08/30 15:34:32;;;;;;;1.58;0.75;;;28.70;46.20;;;;;;10451135;28;20072;-35
2022/08/30 15:39:36;;;;;;;2.50;0.80;;;28.60;46.30;;;;;;10445837;28;20729;-36
2022/08/30 15:44:38;;;;;;;1.48;0.52;;;29.30;45.90;;;;;;10448987;28;20607;-33
2022/08/30 15:49:39;;;;;;;4.38;0.95;;;28.90;45.80;;;;;;10441142;28;20580;-34
2022/08/30 15:54:43;;;;;;;1.95;0.88;;;29.20;45.10;;;;;;10447489;28;20674;-36
2022/08/30 15:59:45;;;;;;;1.20;0.63;;;29.20;45.80;;;;;;10413374;28;20096;-33
2022/08/30 16:04:46;;;;;;;0.75;0.65;;;29.20;46.10;;;;;;10428875;28;20142;-33
2022/08/30 16:09:50;;;;;;;0.85;0.60;;;29.20;45.60;;;;;;10416516;28;20053;-34
2022/08/30 16:14:52;;;;;;;1.08;0.60;;;28.80;45.60;;;;;;10424698;28;20438;-35
2022/08/30 16:19:53;;;;;;;2.40;0.80;;;29.30;45.70;;;;;;10415975;28;20041;-34
2022/08/30 16:24:57;;;;;;;1.38;0.70;;;29.30;45.80;;;;;;10418467;28;20091;-41
2022/08/30 16:29:58;;;;;;;1.25;0.85;;;29.20;45.70;;;;;;10415906;28;20097;-34
2022/08/30 16:35:00;;;;;;;4.35;1.50;;;29.20;45.80;;;;;;10416669;28;20068;-34
2022/08/30 16:40:05;;;;;;;1.90;0.90;;;29.30;45.80;;;;;;10425703;28;20197;-36
2022/08/30 16:45:08;;;;;;;4.00;1.00;;;29.20;45.70;;;;;;10417435;28;20057;-33
2022/08/30 16:50:11;;;;;;;2.83;0.88;;;29.30;45.90;;;;;;10430849;28;20048;-34
2022/08/30 16:55:14;;;;;;;4.72;0.90;;;29.30;46.00;;;;;;10434149;28;20052;-34
2022/08/30 17:00:16;;;;;;;2.58;1.00;;;29.20;46.70;;;;;;10428631;28;20737;-35
2022/08/30 17:05:18;;;;;;;2.38;0.68;;;29.20;46.90;;;;;;10443493;28;20096;-34
2022/08/30 17:10:22;;;;;;;4.43;1.00;;;29.20;46.30;;;;;;10452576;28;20073;-34
2022/08/30 17:15:25;;;;;;;3.22;1.13;;;29.30;46.20;;;;;;10441850;28;20469;-34
2022/08/30 17:20:30;;;;;;;3.45;1.20;;;29.30;46.20;;;;;;10446973;28;20507;-35
2022/08/30 17:25:33;;;;;;;6.38;1.60;;;29.40;46.40;;;;;;10453907;28;20041;-35
2022/08/30 17:30:36;;;;;;;7.68;1.95;;;29.30;46.40;;;;;;10437905;28;20087;-36
2022/08/30 17:35:38;;;;;;;5.80;1.50;;;29.20;46.40;;;;;;10428974;28;20052;-34
2022/08/30 17:40:42;;;;;;;9.65;2.40;;;29.20;46.50;;;;;;10441416;28;20472;-34
2022/08/30 17:45:44;;;;;;;13.68;2.60;;;29.20;46.80;;;;;;10440983;28;20135;-34
2022/08/30 17:50:46;;;;;;;10.55;2.92;;;29.00;46.70;;;;;;10448318;28;20536;-36
2022/08/30 17:55:50;;;;;;;9.27;2.63;;;29.70;47.20;;;;;;10441360;28;20076;-33
2022/08/30 18:00:53;;;;;;;7.90;2.20;;;29.20;47.10;;;;;;10436075;28;20040;-35
2022/08/30 18:05:54;;;;;;;6.93;1.83;;;29.10;46.80;;;;;;10432191;28;20045;-35
2022/08/30 18:10:58;;;;;;;6.82;2.20;;;29.10;47.00;;;;;;10438200;28;20140;-35
2022/08/30 18:16:01;;;;;;;5.78;1.92;;;29.10;47.00;;;;;;10423798;28;20067;-36
2022/08/30 18:21:03;;;;;;;6.22;1.77;;;29.10;47.10;;;;;;10435868;28;20086;-34
2022/08/30 18:26:06;;;;;;;6.72;1.33;;;29.00;47.20;;;;;;10438141;28;20051;-35
2022/08/30 18:31:08;;;;;;;2.90;1.08;;;29.00;47.10;;;;;;10456100;28;20048;-35
2022/08/30 18:36:10;;;;;;;4.85;1.20;;;28.90;47.10;;;;;;10431502;28;20049;-36
2022/08/30 18:41:14;;;;;;;4.85;0.82;;;29.20;47.30;;;;;;10435348;28;20088;-35
2022/08/30 18:46:17;;;;;;;2.30;1.08;;;28.80;47.00;;;;;;10427684;28;20516;-36
2022/08/30 18:51:21;;;;;;;2.72;1.10;;;29.00;47.10;;;;;;10437383;28;20810;-36
2022/08/30 18:56:25;;;;;;;4.47;1.80;;;28.70;46.80;;;;;;10419131;28;20132;-36
2022/08/30 19:01:27;;;;;;;3.00;1.20;;;28.70;46.80;;;;;;10430135;28;20140;-34
2022/08/30 19:06:29;;;;;;;5.75;1.25;;;28.70;46.80;;;;;;10423898;28;20080;-35
2022/08/30 19:11:32;;;;;;;3.75;1.30;;;28.60;46.70;;;;;;10459713;28;20057;-33
2022/08/30 19:16:35;;;;;;;2.90;0.95;;;28.50;46.70;;;;;;10442987;28;20791;-35
2022/08/30 19:21:37;;;;;;;2.70;1.00;;;28.50;46.70;;;;;;10439374;28;20095;-35
2022/08/30 19:26:41;;;;;;;5.28;1.17;;;28.40;46.70;;;;;;10446338;28;20072;-35
2022/08/30 19:31:43;;;;;;;6.63;0.90;;;28.60;46.80;;;;;;10435582;28;20929;-34
2022/08/30 19:36:45;;;;;;;5.03;1.00;;;28.40;46.80;;;;;;10437970;28;20075;-35
2022/08/30 19:41:48;;;;;;;2.88;1.20;;;28.30;46.80;;;;;;10425629;28;20478;-35
2022/08/30 19:46:50;;;;;;;5.25;1.00;;;28.30;46.90;;;;;;10443521;28;20145;-35
2022/08/30 19:51:52;;;;;;;5.05;1.10;;;28.20;46.80;;;;;;10447872;28;20091;-35
2022/08/30 19:56:55;;;;;;;4.00;1.48;;;28.50;47.10;;;;;;10448851;28;20489;-36
2022/08/30 20:01:57;;;;;;;2.50;0.93;;;28.20;47.00;;;;;;10440727;28;20453;-35
2022/08/30 20:06:59;;;;;;;1.60;0.65;;;28.10;47.00;;;;;;10451165;28;20064;-35
2022/08/30 20:12:03;;;;;;;1.58;0.50;;;28.30;47.20;;;;;;10441902;28;20135;-35
2022/08/30 20:17:05;;;;;;;2.85;0.80;;;28.00;47.10;;;;;;10448135;28;20045;-36
2022/08/30 20:22:07;;;;;;;1.38;0.77;;;28.00;47.20;;;;;;10437076;28;20588;-36
2022/08/30 20:27:10;;;;;;;4.60;0.77;;;28.00;47.30;;;;;;10433539;28;20052;-36
2022/08/30 20:32:12;;;;;;;3.05;0.80;;;28.00;47.40;;;;;;10431493;28;20049;-35
2022/08/30 20:37:14;;;;;;;0.50;0.50;;;27.90;47.50;;;;;;10440479;28;20099;-34
2022/08/30 20:42:19;;;;;;;3.10;0.70;;;27.90;47.50;;;;;;10437651;28;20053;-37
2022/08/30 20:47:21;;;;;;;0.95;0.60;;;27.80;47.60;;;;;;10430911;28;20157;-34
2022/08/30 20:52:23;;;;;;;1.88;0.70;;;27.80;47.70;;;;;;10443729;28;20556;-36
2022/08/30 20:57:26;;;;;;;2.45;0.70;;;27.80;47.90;;;;;;10442579;28;20456;-35
2022/08/30 21:02:28;;;;;;;3.90;0.50;;;27.70;47.90;;;;;;10451549;28;20040;-40
2022/08/30 21:07:30;;;;;;;2.05;0.93;;;27.70;48.00;;;;;;10453457;28;20102;-35
2022/08/30 21:12:33;;;;;;;2.60;0.57;;;27.60;48.00;;;;;;10441433;28;20053;-35
2022/08/30 21:17:35;;;;;;;1.50;0.60;;;27.50;48.20;;;;;;10437940;28;20069;-35
2022/08/30 21:22:37;;;;;;;1.95;1.00;;;27.50;48.10;;;;;;10443079;28;20146;-36
2022/08/30 21:27:42;;;;;;;5.03;0.70;;;27.50;48.20;;;;;;10443861;28;20041;-34
2022/08/30 21:32:44;;;;;;;1.35;0.50;;;27.50;48.30;;;;;;10446219;28;20048;-34
2022/08/30 21:37:46;;;;;;;0.90;0.50;;;27.50;48.40;;;;;;10429389;28;20139;-35
2022/08/30 21:42:49;;;;;;;1.15;0.77;;;27.50;48.50;;;;;;10428048;28;20059;-36
2022/08/30 21:47:51;;;;;;;1.77;0.80;;;27.50;48.60;;;;;;10410658;28;20533;-36
2022/08/30 21:52:52;;;;;;;1.75;0.70;;;27.40;48.70;;;;;;10428762;28;20130;-36
2022/08/30 21:57:56;;;;;;;1.35;0.57;;;27.30;48.70;;;;;;10441383;28;20154;-34
2022/08/30 22:02:58;;;;;;;1.35;0.60;;;27.30;48.80;;;;;;10445726;28;20049;-36
2022/08/30 22:07:59;;;;;;;1.80;0.80;;;27.30;48.90;;;;;;10445843;28;20128;-35
2022/08/30 22:13:03;;;;;;;0.90;0.52;;;27.30;49.00;;;;;;10430248;28;20056;-36
2022/08/30 22:18:05;;;;;;;1.63;0.70;;;27.20;49.00;;;;;;10440085;28;20064;-35
2022/08/30 22:23:07;;;;;;;2.47;0.98;;;27.20;49.10;;;;;;10442233;28;20092;-33
2022/08/30 22:28:12;;;;;;;1.58;1.15;;;27.20;49.20;;;;;;10436384;28;20093;-36
2022/08/30 22:33:15;;;;;;;1.45;0.98;;;27.10;49.20;;;;;;10443767;28;20496;-32
2022/08/30 22:38:17;;;;;;;1.38;0.80;;;27.10;49.30;;;;;;10443765;28;20099;-35
2022/08/30 22:43:21;;;;;;;0.98;0.70;;;27.10;49.50;;;;;;10434009;28;20041;-36
2022/08/30 22:48:23;;;;;;;1.73;0.70;;;27.10;49.60;;;;;;10430394;28;20465;-34
2022/08/30 22:53:25;;;;;;;4.20;0.80;;;27.00;49.60;;;;;;10431418;28;20060;-36
2022/08/30 22:58:29;;;;;;;1.77;0.80;;;26.90;49.60;;;;;;10438384;28;20084;-33
2022/08/30 23:03:31;;;;;;;1.98;0.65;;;26.90;49.70;;;;;;10444660;28;20053;-36
2022/08/30 23:08:33;;;;;;;1.45;0.73;;;26.90;49.80;;;;;;10449669;28;20105;-35
2022/08/30 23:13:37;;;;;;;0.70;0.70;;;27.00;50.00;;;;;;10448015;28;20425;-36
2022/08/30 23:18:40;;;;;;;1.08;0.80;;;26.70;50.00;;;;;;10444220;28;20476;-35
